createdAt,value
2023-05-16T00:01:05.346Z,99920.59
2023-05-16T00:03:52.841Z,99930.13
2023-05-16T00:06:38.973Z,99935.00
2023-05-16T00:09:45.075Z,99932.47
2023-05-16T00:12:32.841Z,99928.59
2023-05-16T00:18:31.888Z,99925.53
2023-05-16T00:21:20.012Z,99929.41
2023-05-16T00:24:08.841Z,99926.84
2023-05-16T00:27:01.088Z,99914.97
2023-05-16T00:29:54.162Z,99917.47
2023-05-16T00:32:46.993Z,99915.56
2023-05-16T00:38:53.657Z,99912.56
2023-05-16T00:41:46.318Z,99907.00
2023-05-16T00:47:55.635Z,99919.22
2023-05-16T00:50:48.103Z,99913.16
2023-05-16T00:53:41.148Z,99917.88
2023-05-16T00:56:35.613Z,99917.69
2023-05-16T00:59:28.262Z,99917.03
2023-05-16T01:02:22.199Z,99914.72
2023-05-16T01:05:15.284Z,99921.69
2023-05-16T01:08:08.046Z,99913.78
2023-05-16T01:11:40.251Z,99915.66
2023-05-16T01:14:40.173Z,99922.78
2023-05-16T01:17:39.492Z,99930.69
2023-05-16T01:20:37.033Z,99931.91
2023-05-16T01:26:47.756Z,99933.81
2023-05-16T01:29:40.121Z,99931.75
2023-05-16T01:32:32.763Z,99923.34
2023-05-16T01:35:25.344Z,99917.03
2023-05-16T01:38:34.124Z,99918.81
2023-05-16T01:41:27.614Z,99929.72
2023-05-16T01:44:24.966Z,99932.41
2023-05-16T01:47:18.977Z,99928.13
2023-05-16T01:50:16.383Z,99927.13
2023-05-16T01:53:11.224Z,99934.25
2023-05-16T01:56:05.182Z,99931.22
2023-05-16T01:58:58.175Z,99937.28
2023-05-16T02:01:54.442Z,99940.69
2023-05-16T02:07:49.627Z,99947.28
2023-05-16T02:13:54.336Z,99980.22
2023-05-16T02:16:46.895Z,99975.72
2023-05-16T02:19:41.273Z,99976.50
2023-05-16T02:22:34.451Z,99985.91
2023-05-16T02:25:27.302Z,99979.41
2023-05-16T02:28:20.378Z,99980.94
2023-05-16T02:31:13.167Z,99991.53
2023-05-16T02:34:07.156Z,99987.91
2023-05-16T02:37:01.285Z,99984.78
2023-05-16T02:39:53.667Z,99976.84
2023-05-16T02:42:46.020Z,99987.28
2023-05-16T02:48:52.528Z,99982.72
2023-05-16T02:51:45.128Z,99989.38
2023-05-16T02:54:51.941Z,100000.81
2023-05-16T02:57:53.128Z,99997.16
2023-05-16T03:00:46.060Z,99988.41
2023-05-16T03:03:38.785Z,99993.88
2023-05-16T03:06:31.505Z,99995.47
2023-05-16T03:09:25.990Z,100002.00
2023-05-16T03:12:20.489Z,100006.06
2023-05-16T03:15:12.887Z,100010.66
2023-05-16T03:18:23.443Z,100015.94
2023-05-16T03:21:13.310Z,100018.94
2023-05-16T03:24:06.659Z,100018.41
2023-05-16T03:26:59.860Z,100034.50
2023-05-16T03:29:53.480Z,100028.66
2023-05-16T03:32:53.559Z,100030.97
2023-05-16T03:38:58.353Z,100045.25
2023-05-16T03:45:09.821Z,100060.16
2023-05-16T03:48:02.347Z,100060.91
2023-05-16T03:50:55.589Z,100063.84
2023-05-16T03:57:04.829Z,100068.94
2023-05-16T04:03:11.372Z,100068.47
2023-05-16T04:09:20.445Z,100072.28
2023-05-16T04:15:25.510Z,100073.13
2023-05-16T04:18:19.296Z,100077.16
2023-05-16T04:21:18.150Z,100083.50
2023-05-16T04:24:11.095Z,100088.09
2023-05-16T04:27:04.754Z,100107.75
2023-05-16T04:29:57.302Z,100106.91
2023-05-16T04:35:58.384Z,100113.38
2023-05-16T04:38:51.405Z,100110.88
2023-05-16T04:41:43.925Z,100116.03
2023-05-16T04:44:52.624Z,100124.66
2023-05-16T04:47:44.269Z,100119.22
2023-05-16T04:53:45.226Z,100134.84
2023-05-16T04:56:38.154Z,100142.69
2023-05-16T04:59:56.148Z,100143.81
2023-05-16T05:02:49.257Z,100137.66
2023-05-16T05:05:59.411Z,100149.78
2023-05-16T05:08:50.321Z,100155.56
2023-05-16T05:11:42.814Z,100154.84
2023-05-16T05:17:45.967Z,100161.84
2023-05-16T05:23:57.244Z,100173.25
2023-05-16T05:30:01.403Z,100172.75
2023-05-16T05:36:06.828Z,100190.88
2023-05-16T05:39:00.808Z,100180.75
2023-05-16T05:41:59.571Z,100185.03
2023-05-16T05:44:52.136Z,100185.34
2023-05-16T05:47:45.286Z,100191.16
2023-05-16T05:50:37.999Z,100190.56
2023-05-16T05:53:31.142Z,100186.72
2023-05-16T05:56:29.241Z,100201.72
2023-05-16T05:59:21.698Z,100197.19
2023-05-16T06:05:35.408Z,100203.28
2023-05-16T06:08:27.946Z,100204.00
2023-05-16T06:11:21.454Z,100209.38
2023-05-16T06:14:16.124Z,100206.63
2023-05-16T06:17:09.233Z,100211.00
2023-05-16T06:20:02.100Z,100211.53
2023-05-16T06:22:55.018Z,100215.81
2023-05-16T06:25:51.991Z,100222.88
2023-05-16T06:28:45.042Z,100226.97
2023-05-16T06:31:39.400Z,100229.09
2023-05-16T06:37:42.956Z,100227.22
2023-05-16T06:40:36.394Z,100228.00
2023-05-16T06:43:29.186Z,100232.13
2023-05-16T06:46:23.076Z,100234.91
2023-05-16T06:49:17.562Z,100227.56
2023-05-16T06:52:10.370Z,100232.28
2023-05-16T06:55:05.755Z,100234.94
2023-05-16T06:57:58.170Z,100231.78
2023-05-16T07:00:51.517Z,100243.78
2023-05-16T07:03:43.845Z,100235.13
2023-05-16T07:06:38.562Z,100243.34
2023-05-16T07:09:31.210Z,100239.69
2023-05-16T07:12:23.764Z,100251.44
2023-05-16T07:15:16.250Z,100237.94
2023-05-16T07:18:09.075Z,100242.34
2023-05-16T07:21:02.321Z,100243.34
2023-05-16T07:23:56.369Z,100245.53
2023-05-16T07:26:49.759Z,100250.84
2023-05-16T07:33:11.436Z,100250.63
2023-05-16T07:36:41.492Z,100258.47
2023-05-16T07:39:35.407Z,100259.44
2023-05-16T07:43:05.313Z,100246.47
2023-05-16T07:45:58.235Z,100249.19
2023-05-16T07:48:51.397Z,100250.72
2023-05-16T07:51:43.890Z,100249.75
2023-05-16T07:54:37.591Z,100246.38
2023-05-16T07:57:30.204Z,100247.44
2023-05-16T08:00:24.220Z,100248.63
2023-05-16T08:03:16.945Z,100251.28
2023-05-16T08:09:31.308Z,100256.22
2023-05-16T08:16:11.698Z,100264.53
2023-05-16T08:19:04.137Z,100248.66
2023-05-16T08:21:57.409Z,100252.81
2023-05-16T08:24:49.815Z,100249.19
2023-05-16T08:27:42.892Z,100261.75
2023-05-16T08:30:35.257Z,100259.25
2023-05-16T08:33:29.439Z,100263.00
2023-05-16T08:40:11.019Z,100254.22
2023-05-16T08:43:29.337Z,100241.91
2023-05-16T08:46:24.100Z,100257.50
2023-05-16T08:49:34.471Z,100258.25
2023-05-16T08:52:28.717Z,100265.84
2023-05-16T08:58:42.345Z,100263.28
2023-05-16T09:04:39.955Z,100248.06
2023-05-16T09:10:50.859Z,100248.69
2023-05-16T09:13:44.607Z,100248.38
2023-05-16T09:16:37.656Z,100244.97
2023-05-16T09:19:34.639Z,100241.47
2023-05-16T09:22:27.532Z,100249.28
2023-05-16T09:28:34.933Z,100254.94
2023-05-16T09:34:44.277Z,100254.44
2023-05-16T09:40:53.496Z,100261.81
2023-05-16T09:43:47.636Z,100260.41
2023-05-16T09:46:40.039Z,100266.31
2023-05-16T09:49:33.153Z,100273.44
2023-05-16T09:52:28.038Z,100262.59
2023-05-16T09:55:21.175Z,100258.22
2023-05-16T09:58:17.955Z,100256.53
2023-05-16T10:01:12.999Z,100254.38
2023-05-16T10:04:06.714Z,100248.38
2023-05-16T10:07:01.710Z,100257.38
2023-05-16T10:09:55.332Z,100244.88
2023-05-16T10:12:48.600Z,100250.03
2023-05-16T10:15:41.216Z,100247.19
2023-05-16T10:22:00.397Z,100252.38
2023-05-16T10:24:58.982Z,100251.78
2023-05-16T10:27:52.394Z,100248.13
2023-05-16T10:30:46.588Z,100246.69
2023-05-16T10:33:32.827Z,100245.31
2023-05-16T10:36:18.834Z,100237.53
2023-05-16T10:39:06.651Z,100237.63
2023-05-16T10:41:52.756Z,100241.44
2023-05-16T10:44:40.474Z,100239.09
2023-05-16T10:47:27.984Z,100239.97
2023-05-16T10:50:14.179Z,100242.81
2023-05-16T10:53:13.619Z,100240.16
2023-05-16T10:56:09.863Z,100243.13
2023-05-16T10:58:56.706Z,100235.50
2023-05-16T11:01:42.703Z,100232.28
2023-05-16T11:04:46.406Z,100241.25
2023-05-16T11:07:34.468Z,100241.34
2023-05-16T11:10:27.362Z,100248.63
2023-05-16T11:13:25.581Z,100252.78
2023-05-16T11:16:28.093Z,100247.78
2023-05-16T11:19:32.680Z,100249.44
2023-05-16T11:22:26.800Z,100237.47
2023-05-16T11:25:39.199Z,100243.56
2023-05-16T11:28:33.659Z,100249.56
2023-05-16T11:31:26.451Z,100249.59
2023-05-16T11:34:19.439Z,100262.44
2023-05-16T11:40:37.265Z,100262.09
2023-05-16T11:46:41.912Z,100263.81
2023-05-16T11:52:53.399Z,100258.09
2023-05-16T11:58:59.326Z,100268.00
2023-05-16T12:01:53.537Z,100265.34
2023-05-16T12:04:47.835Z,100267.75
2023-05-16T12:07:41.814Z,100263.00
2023-05-16T12:10:35.050Z,100252.44
2023-05-16T12:13:28.744Z,100253.91
2023-05-16T12:16:21.417Z,100254.38
2023-05-16T12:19:16.096Z,100262.84
2023-05-16T12:22:17.219Z,100251.19
2023-05-16T12:25:22.838Z,100259.41
2023-05-16T12:28:15.834Z,100256.19
2023-05-16T12:31:29.360Z,100252.28
2023-05-16T12:34:29.846Z,100249.78
2023-05-16T12:37:22.380Z,100251.09
2023-05-16T12:40:15.074Z,100248.44
2023-05-16T12:43:14.529Z,100251.56
2023-05-16T12:46:11.440Z,100265.41
2023-05-16T12:49:05.703Z,100264.38
2023-05-16T12:52:05.608Z,100267.25
2023-05-16T12:54:58.496Z,100266.94
2023-05-16T13:01:03.677Z,100274.56
2023-05-16T13:03:56.081Z,100267.47
2023-05-16T13:09:49.323Z,100252.78
2023-05-16T13:12:42.577Z,100249.72
2023-05-16T13:15:34.972Z,100252.94
2023-05-16T13:18:28.112Z,100251.78
2023-05-16T13:21:22.412Z,100252.06
2023-05-16T13:24:15.278Z,100252.44
2023-05-16T13:27:09.689Z,100257.81
2023-05-16T13:30:08.755Z,100245.44
2023-05-16T13:33:01.441Z,100255.38
2023-05-16T13:35:55.271Z,100255.81
2023-05-16T13:38:48.498Z,100255.13
2023-05-16T13:41:42.129Z,100255.41
2023-05-16T13:44:36.713Z,100262.03
2023-05-16T13:47:29.525Z,100259.38
2023-05-16T13:50:22.343Z,100261.63
2023-05-16T13:53:15.215Z,100271.56
2023-05-16T13:56:08.187Z,100269.66
2023-05-16T13:59:05.850Z,100268.88
2023-05-16T14:02:01.447Z,100284.78
2023-05-16T14:04:54.121Z,100286.72
2023-05-16T14:07:47.296Z,100286.97
2023-05-16T14:10:40.361Z,100280.59
2023-05-16T14:13:33.319Z,100291.00
2023-05-16T14:16:26.376Z,100292.75
2023-05-16T14:22:32.838Z,100303.28
2023-05-16T14:25:25.437Z,100309.78
2023-05-16T14:28:18.070Z,100300.22
2023-05-16T14:31:11.468Z,100301.03
2023-05-16T14:34:04.172Z,100304.94
2023-05-16T14:36:57.663Z,100299.50
2023-05-16T14:39:52.854Z,100304.22
2023-05-16T14:42:45.080Z,100304.53
2023-05-16T14:45:39.197Z,100315.72
2023-05-16T14:48:33.104Z,100317.78
2023-05-16T14:51:26.253Z,100316.72
2023-05-16T14:54:19.459Z,100329.56
2023-05-16T14:57:52.513Z,100342.63
2023-05-16T15:00:53.410Z,100338.91
2023-05-16T15:04:11.563Z,100339.69
2023-05-16T15:07:05.074Z,100344.41
2023-05-16T15:10:12.424Z,100348.19
2023-05-16T15:13:04.789Z,100348.81
2023-05-16T15:19:19.674Z,100337.31
2023-05-16T15:25:17.055Z,100329.38
2023-05-16T15:28:10.614Z,100329.41
2023-05-16T15:31:04.548Z,100331.00
2023-05-16T15:33:57.182Z,100335.09
2023-05-16T15:36:52.290Z,100341.75
2023-05-16T15:39:45.324Z,100336.19
2023-05-16T15:42:38.378Z,100335.94
2023-05-16T15:45:42.699Z,100353.91
2023-05-16T15:48:35.407Z,100356.81
2023-05-16T15:51:28.325Z,100351.78
2023-05-16T15:54:22.469Z,100354.59
2023-05-16T15:57:14.968Z,100352.50
2023-05-16T16:00:08.819Z,100355.13
2023-05-16T16:03:03.940Z,100345.16
2023-05-16T16:09:18.294Z,100359.44
2023-05-16T16:15:19.675Z,100354.56
2023-05-16T16:18:13.777Z,100345.28
2023-05-16T16:21:07.212Z,100343.59
2023-05-16T16:24:00.491Z,100354.81
2023-05-16T16:26:53.256Z,100351.47
2023-05-16T16:29:46.573Z,100356.28
2023-05-16T16:32:40.475Z,100358.13
2023-05-16T16:35:34.253Z,100352.66
2023-05-16T16:38:27.241Z,100359.13
2023-05-16T16:41:20.035Z,100367.63
2023-05-16T16:44:13.832Z,100366.38
2023-05-16T16:47:06.553Z,100365.97
2023-05-16T16:50:01.176Z,100365.75
2023-05-16T16:52:54.854Z,100375.69
2023-05-16T16:55:47.265Z,100369.88
2023-05-16T16:58:40.192Z,100380.63
2023-05-16T17:04:49.525Z,100389.72
2023-05-16T17:07:44.042Z,100383.72
2023-05-16T17:11:05.050Z,100389.72
2023-05-16T17:13:59.579Z,100389.03
2023-05-16T17:20:10.055Z,100396.53
2023-05-16T17:23:04.656Z,100405.22
2023-05-16T17:25:57.432Z,100409.19
2023-05-16T17:28:50.389Z,100400.22
2023-05-16T17:31:43.014Z,100407.03
2023-05-16T17:34:36.453Z,100402.72
2023-05-16T17:37:29.381Z,100406.88
2023-05-16T17:40:23.998Z,100412.63
2023-05-16T17:43:17.060Z,100421.16
2023-05-16T17:46:09.945Z,100428.28
2023-05-16T17:49:27.582Z,100431.75
2023-05-16T17:52:22.014Z,100428.88
2023-05-16T17:55:28.480Z,100437.22
2023-05-16T17:58:22.246Z,100430.88
2023-05-16T18:01:15.165Z,100430.00
2023-05-16T18:04:08.903Z,100439.44
2023-05-16T18:07:02.246Z,100437.59
2023-05-16T18:09:55.501Z,100439.28
2023-05-16T18:12:48.297Z,100432.09
2023-05-16T18:15:42.605Z,100445.28
2023-05-16T18:18:37.401Z,100445.84
2023-05-16T18:21:30.337Z,100451.75
2023-05-16T18:24:23.253Z,100453.31
2023-05-16T18:27:16.157Z,100460.69
2023-05-16T18:30:10.607Z,100460.22
2023-05-16T18:33:06.366Z,100465.59
2023-05-16T18:35:59.068Z,100471.50
2023-05-16T18:38:52.895Z,100466.25
2023-05-16T18:44:58.526Z,100470.38
2023-05-16T18:51:05.718Z,100480.34
2023-05-16T18:57:11.308Z,100494.75
2023-05-16T19:00:05.610Z,100484.75
2023-05-16T19:02:58.233Z,100496.09
2023-05-16T19:05:51.549Z,100496.44
2023-05-16T19:08:47.959Z,100499.09
2023-05-16T19:15:18.587Z,100507.88
2023-05-16T19:18:49.576Z,100509.16
2023-05-16T19:21:42.393Z,100507.94
2023-05-16T19:24:36.550Z,100516.75
2023-05-16T19:27:29.355Z,100512.81
2023-05-16T19:30:23.361Z,100524.59
2023-05-16T19:33:16.515Z,100517.41
2023-05-16T19:36:09.742Z,100528.03
2023-05-16T19:39:02.291Z,100525.06
2023-05-16T19:41:57.053Z,100532.16
2023-05-16T19:44:50.103Z,100527.19
2023-05-16T19:47:43.851Z,100533.69
2023-05-16T19:50:37.523Z,100534.47
2023-05-16T19:53:30.689Z,100542.25
2023-05-16T19:56:23.066Z,100541.75
2023-05-16T19:59:17.773Z,100536.13
2023-05-16T20:02:10.465Z,100542.91
2023-05-16T20:05:04.347Z,100552.19
2023-05-16T20:07:57.423Z,100551.75
2023-05-16T20:10:49.879Z,100556.53
2023-05-16T20:13:42.338Z,100559.38
2023-05-16T20:20:08.308Z,100553.69
2023-05-16T20:23:33.390Z,100557.38
2023-05-16T20:26:26.443Z,100549.91
2023-05-16T20:29:35.421Z,100555.56
2023-05-16T20:32:26.535Z,100559.97
2023-05-16T20:39:08.837Z,100569.88
2023-05-16T20:42:01.428Z,100567.81
2023-05-16T20:44:54.357Z,100564.28
2023-05-16T20:47:48.290Z,100565.91
2023-05-16T20:50:41.195Z,100571.41
2023-05-16T20:53:34.404Z,100568.59
2023-05-16T20:57:04.458Z,100569.50
2023-05-16T20:59:58.804Z,100566.84
2023-05-16T21:03:19.502Z,100568.16
2023-05-16T21:06:12.333Z,100567.72
2023-05-16T21:09:05.896Z,100564.25
2023-05-16T21:15:19.881Z,100564.88
2023-05-16T21:21:35.604Z,100562.59
2023-05-16T21:27:53.488Z,100568.00
2023-05-16T21:33:56.401Z,100563.66
2023-05-16T21:39:51.543Z,100564.44
2023-05-16T21:45:56.556Z,100571.88
2023-05-16T21:48:49.094Z,100574.09
2023-05-16T21:51:47.421Z,100577.00
2023-05-16T21:54:40.549Z,100581.84
2023-05-16T21:57:33.310Z,100579.25
2023-05-16T22:00:26.446Z,100580.13
2023-05-16T22:03:21.058Z,100583.69
2023-05-16T22:06:14.205Z,100586.66
2023-05-16T22:09:08.686Z,100584.97
2023-05-16T22:12:01.342Z,100588.72
2023-05-16T22:14:54.378Z,100577.88
2023-05-16T22:18:12.454Z,100583.13
2023-05-16T22:21:06.129Z,100587.75
2023-05-16T22:23:59.270Z,100581.94
2023-05-16T22:26:53.542Z,100577.06
2023-05-16T22:29:46.241Z,100571.38
2023-05-16T22:32:39.558Z,100577.22
2023-05-16T22:35:43.517Z,100576.84
2023-05-16T22:38:36.366Z,100578.56
2023-05-16T22:41:29.601Z,100578.22
2023-05-16T22:47:29.122Z,100580.19
2023-05-16T22:53:34.640Z,100589.78
2023-05-16T22:59:43.749Z,100585.19
2023-05-16T23:02:37.412Z,100585.25
2023-05-16T23:05:30.403Z,100584.97
2023-05-16T23:08:23.479Z,100584.34
2023-05-16T23:11:41.334Z,100581.78
2023-05-16T23:14:34.301Z,100582.91
2023-05-16T23:18:04.586Z,100589.38
2023-05-16T23:20:58.436Z,100594.13
2023-05-16T23:24:04.299Z,100588.97
2023-05-16T23:26:57.202Z,100597.41
2023-05-16T23:33:36.276Z,100602.03
2023-05-16T23:39:39.888Z,100596.84
2023-05-16T23:42:26.217Z,100596.81
2023-05-16T23:45:12.678Z,100596.34
2023-05-16T23:47:59.190Z,100591.09
2023-05-16T23:50:45.463Z,100591.97
2023-05-16T23:53:32.960Z,100598.41
2023-05-16T23:56:20.645Z,100601.41
2023-05-16T23:59:06.573Z,100602.22
